Artesian, South Dakota
Current Conditions -  °F | °C
As of 5:53 PM on Friday 21 Nov 2014 (Local Time) from KMHE Reporting Station
Clear Clear  
Wind Chill: 30°   Ceiling: Unl
Heat Index: 36°   Visibility: 10mi
Dew Point: 31°   Wind: 8mph
Humidity: 82%   Direction: 160°SSE
Pressure: 29.86"   Gusts: NA
Location:  44.01°N, 97.92°W
Report Text: KMHE 212353Z AUTO 16007KT 10SM CLR 02/M01 A2986 RMK AO2 SLP129 T00221006 10050 20022 58000
Loading
Personal Weather Stations






























Interactive Weather Map New forecast layout! Learn more

10-Day Weather Forecast

Advertisements
Track Severe Weather on mobile